KIWD/IWD METAR and TAF weather

Enter ICAO airport designator
Station Type Date Time Source
KIWD METAR 2019/12/05 22:56 UTC NOAA

KIWD 052256Z AUTO 04003KT 9SM -SN OVC055 M03/M04 A2989 RMK AO2 SLP141 P0000 T10281044 FZRANO


Station Type Date Time Source
KIWD Decoded METAR 2019/12/05 22:56 UTC NOAA

Ironwood, Gogebic-Iron County Airport, MI, United States (KIWD) 46-32N 090-08W
Dec 05, 2019 - 05:56 PM EST / 2019.12.05 2256 UTC
Wind: from the NE (040 degrees) at 3 MPH (3 KT):0
Visibility: 9 mile(s):0
Sky conditions: overcast
Weather: light snow
Precipitation last hour: A trace
Temperature: 27.0 F (-2.8 C)
Dew Point: 24.1 F (-4.4 C)
Relative Humidity: 88%
Pressure (altimeter): 29.89 in. Hg (1012 hPa)
ob: KIWD 052256Z AUTO 04003KT 9SM -SN OVC055 M03/M04 A2989 RMK AO2 SLP141 P0000 T10281044 FZRANO
cycle: 23

Station Type Date Time Source
KIWD TAF 2019/12/05 18:36 UTC NOAA

TAF KIWD 051735Z 0518/0618 11006KT P6SM OVC060
FM052000 VRB04KT 4SM -SHSN OVC029
FM060000 00000KT 3SM -SHSN OVC008
FM060200 VRB03KT 2SM -SHSN OVC005
FM060600 30011KT P6SM -SHSN BKN018
FM060900 31010KT P6SM BKN022

Example: see airport list